Time;durP1;ratioP1;P1;durP2;ratioP2;P2;SDS_P1;SDS_P2;PMS_P1;PMS_P2;Temp;Humidity;BMP_temperature;BMP_pressure;BME280_temperature;BME280_humidity;BME280_pressure;Samples;Min_cycle;Max_cycle;Signal;HPM_P1;HPM_P2
2023/10/03 00:00:22;;;;;;;36.90;23.83;;;14.90;99.90;;;;;;2087650;28;20045;-72
2023/10/03 00:01:23;;;;;;;34.58;22.45;;;14.90;99.90;;;;;;2091531;28;20119;-72
2023/10/03 00:02:23;;;;;;;35.85;21.42;;;14.80;99.90;;;;;;2092176;28;20028;-72
2023/10/03 00:03:25;;;;;;;33.78;20.35;;;14.90;99.90;;;;;;2096539;28;20528;-72
2023/10/03 00:04:26;;;;;;;33.80;20.67;;;14.90;99.90;;;;;;2084016;28;20020;-72
2023/10/03 00:05:29;;;;;;;34.42;19.88;;;14.90;99.90;;;;;;2087870;28;20053;-73
2023/10/03 00:06:30;;;;;;;33.80;19.48;;;14.90;99.90;;;;;;2095393;28;20035;-72
2023/10/03 00:07:31;;;;;;;31.95;18.80;;;14.90;99.90;;;;;;2092776;28;20056;-71
2023/10/03 00:08:31;;;;;;;29.77;17.95;;;14.80;99.90;;;;;;2094532;28;20032;-72
2023/10/03 00:09:32;;;;;;;31.52;18.70;;;14.80;99.90;;;;;;2100579;28;20028;-72
2023/10/03 00:10:35;;;;;;;32.08;17.90;;;14.80;99.90;;;;;;2092505;28;20115;-72
2023/10/03 00:11:37;;;;;;;31.08;18.52;;;14.80;99.90;;;;;;2084108;28;20128;-72
2023/10/03 00:12:37;;;;;;;31.63;18.45;;;14.80;99.90;;;;;;2086811;28;20115;-72
2023/10/03 00:13:38;;;;;;;32.58;19.98;;;14.90;99.90;;;;;;2092393;28;20024;-73
2023/10/03 00:14:39;;;;;;;32.70;20.95;;;14.90;99.90;;;;;;2093819;28;20020;-74
2023/10/03 00:15:49;;;;;;;32.90;22.08;;;14.90;99.90;;;;;;2099678;28;20433;-73
2023/10/03 00:16:50;;;;;;;35.33;21.45;;;14.90;99.90;;;;;;2087199;28;20035;-73
2023/10/03 00:17:51;;;;;;;30.63;19.65;;;14.90;99.90;;;;;;2085369;28;20663;-72
2023/10/03 00:18:52;;;;;;;29.33;17.45;;;14.90;99.90;;;;;;2096130;28;20044;-72
2023/10/03 00:19:52;;;;;;;27.98;16.35;;;14.80;99.90;;;;;;2092138;28;20052;-72
2023/10/03 00:20:53;;;;;;;28.85;16.10;;;14.80;99.90;;;;;;2098090;28;20157;-72
2023/10/03 00:21:53;;;;;;;29.95;16.63;;;14.80;99.90;;;;;;2093463;28;20479;-73
2023/10/03 00:22:54;;;;;;;24.63;15.00;;;14.80;99.90;;;;;;2092682;28;20491;-72
2023/10/03 00:23:55;;;;;;;27.52;16.48;;;14.80;99.90;;;;;;2085242;28;20024;-71
2023/10/03 00:24:55;;;;;;;27.13;15.50;;;14.80;99.90;;;;;;2086538;28;20049;-72
2023/10/03 00:25:59;;;;;;;27.08;16.05;;;14.80;99.90;;;;;;2098307;28;20020;-72
2023/10/03 00:26:59;;;;;;;28.08;15.63;;;14.70;99.90;;;;;;2092274;28;21023;-74
2023/10/03 00:28:00;;;;;;;28.83;16.05;;;14.80;99.90;;;;;;2093821;28;20123;-72
2023/10/03 00:29:01;;;;;;;26.27;15.23;;;14.70;99.90;;;;;;2085298;28;20032;-70
2023/10/03 00:30:06;;;;;;;26.35;15.75;;;14.70;99.90;;;;;;2083879;28;20128;-72
2023/10/03 00:31:13;;;;;;;28.15;16.10;;;14.70;99.90;;;;;;2083946;28;20067;-71
2023/10/03 00:32:14;;;;;;;30.83;15.38;;;14.70;99.90;;;;;;2089362;28;20539;-72
2023/10/03 00:33:15;;;;;;;29.98;15.80;;;14.70;99.90;;;;;;2092668;28;20096;-72
2023/10/03 00:34:16;;;;;;;28.40;16.65;;;14.70;99.90;;;;;;2085428;28;20025;-72
2023/10/03 00:35:17;;;;;;;26.10;15.95;;;14.70;99.90;;;;;;2087807;28;20602;-72
2023/10/03 00:36:23;;;;;;;29.00;16.20;;;14.70;99.90;;;;;;2096298;28;20037;-72
2023/10/03 00:37:24;;;;;;;24.25;15.85;;;14.60;99.90;;;;;;2087084;28;20024;-72
2023/10/03 00:38:24;;;;;;;26.02;15.52;;;14.60;99.90;;;;;;2086273;28;20808;-73
2023/10/03 00:39:25;;;;;;;26.25;15.80;;;14.60;99.90;;;;;;2099625;28;20067;-73
2023/10/03 00:40:28;;;;;;;27.17;15.70;;;14.60;99.90;;;;;;2096404;28;20551;-74
2023/10/03 00:41:29;;;;;;;28.00;15.65;;;14.60;99.90;;;;;;2090760;28;20593;-73
2023/10/03 00:42:31;;;;;;;26.55;15.25;;;14.60;99.90;;;;;;2077050;28;20025;-73
2023/10/03 00:43:32;;;;;;;26.35;14.82;;;14.50;99.90;;;;;;2082864;28;20438;-72
2023/10/03 00:44:32;;;;;;;25.75;15.13;;;14.50;99.90;;;;;;2074737;28;20025;-72
2023/10/03 00:45:33;;;;;;;27.05;15.82;;;14.50;99.90;;;;;;2086630;28;20021;-73
2023/10/03 00:46:34;;;;;;;27.00;15.90;;;14.50;99.90;;;;;;2075211;28;20021;-73
2023/10/03 00:47:35;;;;;;;25.40;15.43;;;14.50;99.90;;;;;;2078485;28;20531;-73
2023/10/03 00:48:35;;;;;;;26.63;14.63;;;14.50;99.90;;;;;;2092093;28;20475;-73
2023/10/03 00:49:36;;;;;;;23.80;14.68;;;14.50;99.90;;;;;;2094813;28;20372;-73
2023/10/03 00:50:38;;;;;;;26.77;15.65;;;14.50;99.90;;;;;;2085669;28;20058;-72
2023/10/03 00:51:40;;;;;;;28.17;15.55;;;14.50;99.90;;;;;;2083414;28;20112;-71
2023/10/03 00:52:42;;;;;;;28.17;15.88;;;14.50;99.90;;;;;;2083374;28;20112;-72
2023/10/03 00:53:43;;;;;;;25.40;14.55;;;14.50;99.90;;;;;;2086955;28;20020;-64
2023/10/03 00:54:44;;;;;;;27.08;15.98;;;14.50;99.90;;;;;;2093957;28;20103;-70
2023/10/03 00:55:44;;;;;;;26.38;15.82;;;14.40;99.90;;;;;;2091888;28;20028;-72
2023/10/03 00:56:47;;;;;;;28.83;15.48;;;14.40;99.90;;;;;;2094289;28;20414;-65
2023/10/03 00:57:47;;;;;;;25.77;14.80;;;14.40;99.90;;;;;;2083866;28;20431;-70
2023/10/03 00:58:48;;;;;;;27.63;15.23;;;14.40;99.90;;;;;;2082874;28;20045;-71
2023/10/03 00:59:49;;;;;;;28.00;14.88;;;14.40;99.90;;;;;;2086756;28;20024;-71
2023/10/03 01:00:50;;;;;;;25.13;15.23;;;14.40;99.90;;;;;;2091515;28;20078;-71
2023/10/03 01:01:52;;;;;;;25.85;15.27;;;14.40;99.90;;;;;;2087140;28;20607;-71
2023/10/03 01:02:52;;;;;;;25.88;15.43;;;14.40;99.90;;;;;;2095156;28;20048;-71
2023/10/03 01:03:55;;;;;;;25.05;14.30;;;14.40;99.90;;;;;;2092727;28;20051;-71
2023/10/03 01:04:56;;;;;;;26.38;14.98;;;14.40;99.90;;;;;;2085101;28;20035;-71
2023/10/03 01:06:04;;;;;;;24.58;14.82;;;14.40;99.90;;;;;;2086496;28;20048;-71
2023/10/03 01:07:04;;;;;;;26.60;14.68;;;14.40;99.90;;;;;;2085968;28;20055;-70
2023/10/03 01:08:06;;;;;;;27.40;14.50;;;14.40;99.90;;;;;;2083557;28;20631;-73
2023/10/03 01:09:14;;;;;;;24.60;14.77;;;14.40;99.90;;;;;;2092404;28;20086;-73
2023/10/03 01:10:18;;;;;;;26.35;14.25;;;14.40;99.90;;;;;;2089597;28;20028;-74
2023/10/03 01:11:19;;;;;;;26.52;15.07;;;14.40;99.90;;;;;;2077317;28;20033;-73
2023/10/03 01:12:19;;;;;;;26.35;15.00;;;14.40;99.90;;;;;;2078943;28;20140;-72
2023/10/03 01:13:20;;;;;;;27.60;15.20;;;14.40;99.90;;;;;;2074827;28;20057;-73
2023/10/03 01:14:21;;;;;;;28.15;15.27;;;14.40;99.90;;;;;;2076891;28;20098;-73
2023/10/03 01:15:22;;;;;;;23.48;14.73;;;14.40;99.90;;;;;;2089779;28;20032;-73
2023/10/03 01:16:33;;;;;;;24.77;15.02;;;14.40;99.90;;;;;;2093303;28;20514;-73
2023/10/03 01:17:34;;;;;;;27.42;15.52;;;14.40;99.90;;;;;;2088986;28;20032;-72
2023/10/03 01:18:38;;;;;;;22.90;14.23;;;14.40;99.90;;;;;;2092056;28;20029;-73
2023/10/03 01:19:40;;;;;;;26.65;15.27;;;14.30;99.90;;;;;;2087202;28;20732;-74
2023/10/03 01:20:41;;;;;;;25.05;14.88;;;14.30;99.90;;;;;;2078447;28;20536;-72
2023/10/03 01:21:42;;;;;;;24.55;14.98;;;14.30;99.90;;;;;;2085904;28;20054;-72
2023/10/03 01:22:45;;;;;;;26.85;15.57;;;14.30;99.90;;;;;;2086008;28;20029;-74
2023/10/03 01:23:45;;;;;;;28.27;15.70;;;14.30;99.90;;;;;;2087095;28;20813;-72
2023/10/03 01:24:46;;;;;;;24.83;14.85;;;14.30;99.90;;;;;;2088768;28;20051;-72
2023/10/03 01:25:47;;;;;;;25.20;15.23;;;14.30;99.90;;;;;;2091045;28;20438;-72
2023/10/03 01:26:48;;;;;;;24.15;14.15;;;14.30;99.90;;;;;;2087243;28;20491;-73
2023/10/03 01:27:49;;;;;;;24.95;14.48;;;14.30;99.90;;;;;;2082853;28;20117;-73
2023/10/03 01:28:49;;;;;;;25.00;14.45;;;14.30;99.90;;;;;;2076596;28;20531;-73
2023/10/03 01:29:50;;;;;;;26.13;14.73;;;14.30;99.90;;;;;;2084957;28;20021;-73
2023/10/03 01:30:51;;;;;;;26.00;14.73;;;14.20;99.90;;;;;;2095727;28;20107;-73
2023/10/03 01:31:52;;;;;;;27.25;14.60;;;14.20;99.90;;;;;;2089304;28;20045;-73
2023/10/03 01:32:56;;;;;;;23.85;14.25;;;14.20;99.90;;;;;;2092799;28;20035;-74
2023/10/03 01:34:01;;;;;;;23.25;14.52;;;14.20;99.90;;;;;;2092111;28;20013;-73
2023/10/03 01:35:07;;;;;;;28.92;15.68;;;14.20;99.90;;;;;;2091654;28;20024;-72
2023/10/03 01:36:08;;;;;;;23.88;14.57;;;14.10;99.90;;;;;;2088907;28;20028;-71
2023/10/03 01:37:08;;;;;;;25.42;14.45;;;14.20;99.90;;;;;;2085885;28;20485;-73
2023/10/03 01:38:09;;;;;;;26.52;15.02;;;14.20;99.90;;;;;;2083962;28;20029;-73
2023/10/03 01:39:11;;;;;;;28.90;14.88;;;14.20;99.90;;;;;;2092553;28;20016;-73
2023/10/03 01:40:16;;;;;;;23.20;14.55;;;14.20;99.90;;;;;;2082292;28;20030;-73
2023/10/03 01:41:17;;;;;;;25.98;15.30;;;14.20;99.90;;;;;;2086467;28;20028;-73
2023/10/03 01:42:18;;;;;;;26.38;15.23;;;14.20;99.90;;;;;;2078663;28;20519;-72
2023/10/03 01:43:19;;;;;;;26.13;14.27;;;14.20;99.90;;;;;;2082691;28;20088;-73
2023/10/03 01:44:20;;;;;;;25.13;14.95;;;14.20;99.90;;;;;;2094346;28;20028;-72
2023/10/03 01:45:26;;;;;;;26.75;15.00;;;14.20;99.90;;;;;;2095469;28;20092;-73
2023/10/03 01:46:26;;;;;;;25.98;14.77;;;14.20;99.90;;;;;;2082893;28;20085;-73
2023/10/03 01:47:27;;;;;;;25.55;14.25;;;14.20;99.90;;;;;;2088491;28;20028;-73
2023/10/03 01:48:28;;;;;;;25.83;14.60;;;14.20;99.90;;;;;;2093991;28;20024;-73
2023/10/03 01:49:29;;;;;;;28.08;15.05;;;14.20;99.90;;;;;;2096107;28;20024;-73
2023/10/03 01:50:29;;;;;;;27.75;14.80;;;14.20;99.90;;;;;;2084226;28;20035;-72
2023/10/03 01:51:30;;;;;;;25.50;14.70;;;14.10;99.90;;;;;;2087088;28;20016;-72
2023/10/03 01:52:31;;;;;;;24.23;14.23;;;14.10;99.90;;;;;;2083886;28;20032;-73
2023/10/03 01:53:31;;;;;;;25.98;14.63;;;14.20;99.90;;;;;;2075627;28;20606;-72
2023/10/03 01:54:33;;;;;;;24.90;14.23;;;14.20;99.90;;;;;;2082309;28;20055;-72
2023/10/03 01:55:35;;;;;;;24.00;14.63;;;14.20;99.90;;;;;;2095362;28;20450;-72
2023/10/03 01:56:35;;;;;;;26.10;14.25;;;14.10;99.90;;;;;;2095888;28;20719;-72
2023/10/03 01:57:37;;;;;;;22.77;13.93;;;14.20;99.90;;;;;;2082772;28;20078;-72
2023/10/03 01:58:40;;;;;;;25.10;14.48;;;14.20;99.90;;;;;;2071325;28;20033;-71
2023/10/03 01:59:41;;;;;;;25.27;14.15;;;14.20;99.90;;;;;;2071788;28;20040;-74
2023/10/03 02:00:43;;;;;;;26.58;14.20;;;14.20;99.90;;;;;;2085068;28;20680;-71
2023/10/03 02:01:43;;;;;;;24.30;13.95;;;14.20;99.90;;;;;;2094886;28;20055;-72
2023/10/03 02:02:44;;;;;;;25.40;14.45;;;14.20;99.90;;;;;;2084868;28;20018;-72
2023/10/03 02:03:45;;;;;;;25.27;13.93;;;14.20;99.90;;;;;;2083988;28;20025;-72
2023/10/03 02:04:45;;;;;;;26.63;14.05;;;14.20;99.90;;;;;;2086864;28;20051;-72
2023/10/03 02:05:48;;;;;;;26.38;14.40;;;14.20;99.90;;;;;;2081172;28;20142;-72
2023/10/03 02:06:51;;;;;;;24.55;14.35;;;14.20;99.90;;;;;;2079365;28;20482;-72
2023/10/03 02:07:52;;;;;;;24.25;14.40;;;14.20;99.90;;;;;;2084748;28;20033;-72
2023/10/03 02:08:53;;;;;;;25.23;14.10;;;14.20;99.90;;;;;;2093124;28;20089;-71
2023/10/03 02:09:55;;;;;;;25.92;14.32;;;14.20;99.90;;;;;;2094027;28;20498;-72
2023/10/03 02:10:56;;;;;;;24.65;14.38;;;14.20;99.90;;;;;;2075542;28;20021;-72
2023/10/03 02:11:59;;;;;;;23.02;14.23;;;14.20;99.90;;;;;;2076603;28;20033;-71
2023/10/03 02:13:01;;;;;;;23.08;13.63;;;14.20;99.90;;;;;;2078552;28;20036;-72
2023/10/03 02:14:06;;;;;;;24.70;13.43;;;14.20;99.90;;;;;;2088120;28;20075;-72
2023/10/03 02:15:09;;;;;;;24.58;14.27;;;14.20;99.90;;;;;;2084385;28;20083;-72
2023/10/03 02:16:10;;;;;;;21.63;13.18;;;14.20;99.90;;;;;;2084471;28;20124;-73
2023/10/03 02:17:11;;;;;;;22.75;14.00;;;14.20;99.90;;;;;;2076159;28;20021;-69
2023/10/03 02:18:13;;;;;;;25.52;14.15;;;14.20;99.90;;;;;;2089066;28;20023;-72
2023/10/03 02:19:14;;;;;;;24.30;13.77;;;14.20;99.90;;;;;;2092621;28;20050;-72
2023/10/03 02:20:20;;;;;;;22.90;13.23;;;14.20;99.90;;;;;;2092389;28;20021;-72
2023/10/03 02:21:20;;;;;;;25.77;13.80;;;14.20;99.90;;;;;;2088728;28;20033;-72
2023/10/03 02:22:21;;;;;;;23.75;13.35;;;14.20;99.90;;;;;;2086426;28;20036;-72
2023/10/03 02:23:23;;;;;;;23.30;13.13;;;14.20;99.90;;;;;;2087293;28;20742;-72
2023/10/03 02:24:24;;;;;;;24.20;13.40;;;14.30;99.90;;;;;;2095471;28;20283;-72
2023/10/03 02:25:30;;;;;;;24.65;14.20;;;14.20;99.90;;;;;;2094741;28;20718;-72
2023/10/03 02:26:32;;;;;;;25.50;14.02;;;14.20;99.90;;;;;;2091353;28;20020;-74
2023/10/03 02:27:32;;;;;;;24.98;14.23;;;14.20;99.90;;;;;;2095067;28;20039;-72
2023/10/03 02:28:33;;;;;;;28.02;13.82;;;14.20;99.90;;;;;;2086677;28;20024;-73
2023/10/03 02:29:34;;;;;;;22.52;13.45;;;14.20;99.90;;;;;;2078160;28;20063;-73
2023/10/03 02:30:36;;;;;;;23.58;13.73;;;14.20;99.90;;;;;;2083752;28;20595;-72
2023/10/03 02:31:37;;;;;;;23.15;14.00;;;14.10;99.90;;;;;;2092491;28;20037;-72
2023/10/03 02:32:41;;;;;;;24.38;13.75;;;14.10;99.90;;;;;;2091573;28;20021;-73
2023/10/03 02:33:43;;;;;;;24.33;14.02;;;14.10;99.90;;;;;;2098158;28;20032;-72
2023/10/03 02:34:44;;;;;;;22.20;13.00;;;14.10;99.90;;;;;;2081049;28;20021;-72
2023/10/03 02:35:47;;;;;;;25.77;13.73;;;14.10;99.90;;;;;;2086222;28;20033;-72
2023/10/03 02:36:48;;;;;;;27.30;13.88;;;14.10;99.90;;;;;;2086739;28;20033;-72
2023/10/03 02:37:55;;;;;;;25.65;14.13;;;14.10;99.90;;;;;;2076399;28;20041;-72
2023/10/03 02:38:58;;;;;;;23.92;13.30;;;14.10;99.90;;;;;;2086226;28;20494;-73
2023/10/03 02:40:00;;;;;;;24.90;13.95;;;14.10;99.90;;;;;;2083085;28;20108;-73
2023/10/03 02:41:01;;;;;;;25.77;13.93;;;14.10;99.90;;;;;;2067900;28;20121;-72
2023/10/03 02:42:09;;;;;;;22.73;13.60;;;14.10;99.90;;;;;;2081001;28;20095;-73
2023/10/03 02:43:10;;;;;;;25.05;13.88;;;14.10;99.90;;;;;;2083700;28;20498;-73
2023/10/03 02:44:12;;;;;;;24.50;13.65;;;14.00;99.90;;;;;;2082427;28;20017;-73
2023/10/03 02:45:16;;;;;;;26.08;14.35;;;14.10;99.90;;;;;;2082812;28;20116;-72
2023/10/03 02:46:17;;;;;;;23.45;13.32;;;14.10;99.90;;;;;;2089041;28;20032;-73
2023/10/03 02:47:24;;;;;;;26.17;13.18;;;14.10;99.90;;;;;;2081016;28;20036;-73
2023/10/03 02:48:24;;;;;;;26.75;14.13;;;14.00;99.90;;;;;;2086482;28;20041;-72
2023/10/03 02:49:25;;;;;;;23.85;13.68;;;14.10;99.90;;;;;;2085768;28;20027;-72
2023/10/03 02:50:32;;;;;;;22.25;13.70;;;14.00;99.90;;;;;;2085769;28;20028;-73
2023/10/03 02:51:33;;;;;;;25.00;13.65;;;14.10;99.90;;;;;;2094504;28;20029;-73
2023/10/03 02:52:35;;;;;;;26.83;13.65;;;14.10;99.90;;;;;;2093841;28;20036;-72
2023/10/03 02:53:36;;;;;;;22.88;13.63;;;14.10;99.90;;;;;;2091806;28;20021;-74
2023/10/03 02:54:37;;;;;;;25.23;13.77;;;14.10;99.90;;;;;;2092673;28;20020;-71
2023/10/03 02:55:37;;;;;;;26.58;13.07;;;14.10;99.90;;;;;;2092626;28;20047;-71
2023/10/03 02:56:38;;;;;;;21.83;12.68;;;14.10;99.90;;;;;;2091978;28;20032;-71
2023/10/03 02:57:39;;;;;;;23.50;13.13;;;14.10;99.90;;;;;;2079269;28;20037;-72
2023/10/03 02:58:40;;;;;;;23.00;12.38;;;14.10;99.90;;;;;;2079264;28;20061;-71
2023/10/03 02:59:44;;;;;;;23.58;13.43;;;14.10;99.90;;;;;;2081075;28;20031;-71
2023/10/03 03:00:46;;;;;;;24.50;12.98;;;14.10;99.90;;;;;;2076306;28;20029;-72
2023/10/03 03:01:52;;;;;;;23.00;13.02;;;14.10;99.90;;;;;;2083109;28;20029;-73
2023/10/03 03:02:54;;;;;;;23.13;13.20;;;14.10;99.90;;;;;;2086363;28;20657;-73
2023/10/03 03:03:59;;;;;;;21.35;12.88;;;14.10;99.90;;;;;;2096433;28;20558;-72
2023/10/03 03:05:04;;;;;;;22.85;12.52;;;14.10;99.90;;;;;;2090693;28;20016;-72
2023/10/03 03:06:11;;;;;;;25.25;13.30;;;14.10;99.90;;;;;;2079466;28;20025;-72
2023/10/03 03:07:12;;;;;;;23.75;12.80;;;14.10;99.90;;;;;;2078752;28;20036;-72
2023/10/03 03:09:23;;;;;;;25.75;13.57;;;14.10;99.90;;;;;;2082571;28;20602;-72
2023/10/03 03:10:24;;;;;;;25.83;13.75;;;14.10;99.90;;;;;;2074099;28;20032;-71
2023/10/03 03:11:28;;;;;;;22.40;13.00;;;14.00;99.90;;;;;;2073358;28;20026;-73
2023/10/03 03:12:29;;;;;;;24.58;13.50;;;14.00;99.90;;;;;;2079195;28;20751;-72
2023/10/03 03:13:36;;;;;;;23.98;14.23;;;14.00;99.90;;;;;;2086394;28;20029;-72
2023/10/03 03:14:36;;;;;;;23.05;13.60;;;14.10;99.90;;;;;;2090862;28;20024;-72
2023/10/03 03:15:37;;;;;;;24.17;13.57;;;14.00;99.90;;;;;;2093714;28;20082;-73
2023/10/03 03:16:40;;;;;;;26.75;13.52;;;14.00;99.90;;;;;;2094237;28;20025;-71
2023/10/03 03:17:40;;;;;;;23.30;13.68;;;14.00;99.90;;;;;;2098307;28;20020;-71
2023/10/03 03:18:42;;;;;;;27.02;14.05;;;14.00;99.90;;;;;;2098911;28;20158;-71
2023/10/03 03:19:44;;;;;;;24.35;12.93;;;14.00;99.90;;;;;;2099507;28;20035;-71
2023/10/03 03:20:50;;;;;;;28.33;13.80;;;14.00;99.90;;;;;;2084066;28;20051;-71
2023/10/03 03:21:50;;;;;;;24.10;13.57;;;14.00;99.90;;;;;;2083954;28;20044;-71
2023/10/03 03:22:52;;;;;;;23.08;12.82;;;14.00;99.90;;;;;;2091765;28;20031;-71
2023/10/03 03:23:56;;;;;;;25.33;13.20;;;14.00;99.90;;;;;;2092500;28;20020;-73
2023/10/03 03:24:58;;;;;;;22.40;13.00;;;14.00;99.90;;;;;;2093122;28;20040;-73
2023/10/03 03:26:17;;;;;;;24.27;13.07;;;14.00;99.90;;;;;;2091088;28;20051;-72
2023/10/03 03:27:18;;;;;;;22.17;13.07;;;14.00;99.90;;;;;;2087988;28;20517;-72
2023/10/03 03:28:23;;;;;;;23.13;12.75;;;14.00;99.90;;;;;;2091457;28;20021;-71
2023/10/03 03:29:35;;;;;;;26.70;13.02;;;14.00;99.90;;;;;;2091225;28;20102;-73
2023/10/03 03:30:35;;;;;;;24.25;13.05;;;14.00;99.90;;;;;;2091107;28;20035;-73
2023/10/03 03:31:37;;;;;;;23.90;13.70;;;14.00;99.90;;;;;;2082235;28;20040;-73
2023/10/03 03:32:38;;;;;;;22.42;13.40;;;14.00;99.90;;;;;;2084389;28;20776;-73
2023/10/03 03:33:39;;;;;;;23.98;12.95;;;14.00;99.90;;;;;;2086305;28;20695;-74
2023/10/03 03:34:40;;;;;;;26.17;13.20;;;13.90;99.90;;;;;;2091216;28;20119;-73
2023/10/03 03:35:41;;;;;;;23.70;12.77;;;13.90;99.90;;;;;;2095517;28;20748;-73
2023/10/03 03:36:46;;;;;;;24.52;13.00;;;13.90;99.90;;;;;;2094752;28;20454;-71
2023/10/03 03:37:47;;;;;;;24.90;12.80;;;13.90;99.90;;;;;;2095425;28;20035;-73
2023/10/03 03:38:51;;;;;;;24.67;13.27;;;13.90;99.90;;;;;;2085619;28;20029;-70
2023/10/03 03:39:56;;;;;;;26.38;13.07;;;13.90;99.90;;;;;;2084131;28;20043;-73
2023/10/03 03:41:01;;;;;;;23.73;12.75;;;13.90;99.90;;;;;;2084800;28;20065;-73
2023/10/03 03:42:02;;;;;;;24.13;13.20;;;13.90;99.90;;;;;;2091202;28;20027;-72
2023/10/03 03:43:06;;;;;;;25.00;13.15;;;13.90;99.90;;;;;;2094440;28;20035;-73
2023/10/03 03:44:18;;;;;;;22.17;13.20;;;13.90;99.90;;;;;;2097912;28;20051;-72
2023/10/03 03:45:21;;;;;;;24.00;12.70;;;13.90;99.90;;;;;;2084273;28;20578;-72
2023/10/03 03:46:21;;;;;;;22.70;12.95;;;13.90;99.90;;;;;;2091808;28;20087;-73
2023/10/03 03:47:22;;;;;;;23.27;12.90;;;13.90;99.90;;;;;;2090421;28;20609;-72
2023/10/03 03:48:22;;;;;;;22.80;13.13;;;13.90;99.90;;;;;;2085821;28;20032;-74
2023/10/03 03:49:25;;;;;;;27.38;13.80;;;13.90;99.90;;;;;;2092329;28;20033;-72
2023/10/03 03:50:29;;;;;;;23.95;13.15;;;13.90;99.90;;;;;;2095086;28;20040;-72
2023/10/03 03:51:30;;;;;;;23.88;13.43;;;13.90;99.90;;;;;;2088567;28;20624;-72
2023/10/03 03:52:32;;;;;;;24.75;13.20;;;13.90;99.90;;;;;;2084177;28;20029;-72
2023/10/03 03:53:33;;;;;;;24.30;13.45;;;13.90;99.90;;;;;;2090401;28;20107;-72
2023/10/03 03:54:34;;;;;;;24.33;12.65;;;13.90;99.90;;;;;;2092003;28;20052;-73
2023/10/03 03:55:36;;;;;;;25.58;13.45;;;13.90;99.90;;;;;;2098096;28;20672;-73
2023/10/03 03:56:38;;;;;;;24.98;12.88;;;13.90;99.90;;;;;;2092256;28;20603;-73
2023/10/03 03:57:39;;;;;;;23.70;12.80;;;13.90;99.90;;;;;;2090539;28;20033;-73
2023/10/03 03:58:48;;;;;;;22.55;12.48;;;13.90;99.90;;;;;;2093203;28;20048;-73
2023/10/03 03:59:48;;;;;;;22.60;13.25;;;13.90;99.90;;;;;;2084766;28;20041;-72
2023/10/03 04:00:52;;;;;;;23.27;12.98;;;13.80;99.90;;;;;;2091634;28;20614;-72
2023/10/03 04:01:54;;;;;;;23.55;13.60;;;13.80;99.90;;;;;;2088609;28;20549;-73
2023/10/03 04:02:57;;;;;;;22.10;12.23;;;13.80;99.90;;;;;;2092443;28;20021;-72
2023/10/03 04:03:58;;;;;;;22.30;13.13;;;13.80;99.90;;;;;;2075510;28;20044;-73
2023/10/03 04:04:59;;;;;;;23.23;12.98;;;13.80;99.90;;;;;;2078291;28;20123;-75
2023/10/03 04:06:01;;;;;;;21.95;13.40;;;13.80;99.90;;;;;;2091836;28;20085;-73
2023/10/03 04:07:02;;;;;;;22.55;12.95;;;13.80;99.90;;;;;;2095058;28;20479;-72
2023/10/03 04:08:04;;;;;;;24.10;13.60;;;13.80;99.90;;;;;;2095247;28;20025;-73
2023/10/03 04:09:05;;;;;;;27.33;13.75;;;13.80;99.90;;;;;;2096867;28;20036;-72
2023/10/03 04:10:09;;;;;;;23.25;12.82;;;13.80;99.90;;;;;;2092876;28;21073;-72
2023/10/03 04:11:10;;;;;;;23.05;12.80;;;13.80;99.90;;;;;;2094234;28;20060;-72
2023/10/03 04:12:13;;;;;;;22.08;13.15;;;13.80;99.90;;;;;;2091422;28;20013;-72
2023/10/03 04:13:16;;;;;;;25.20;12.70;;;13.80;99.90;;;;;;2086075;28;20033;-72
2023/10/03 04:14:17;;;;;;;26.48;13.25;;;13.80;99.90;;;;;;2081368;28;20052;-72
2023/10/03 04:15:20;;;;;;;23.38;13.13;;;13.80;99.90;;;;;;2082396;28;20078;-72
2023/10/03 04:16:22;;;;;;;23.50;12.20;;;13.90;99.90;;;;;;2076039;28;20125;-71
2023/10/03 04:17:22;;;;;;;23.33;13.07;;;13.80;99.90;;;;;;2086776;28;20048;-71
2023/10/03 04:18:23;;;;;;;24.35;13.02;;;13.80;99.90;;;;;;2091190;28;20028;-74
2023/10/03 04:19:23;;;;;;;24.58;13.20;;;13.80;99.90;;;;;;2095120;28;20044;-73
2023/10/03 04:20:31;;;;;;;26.13;12.93;;;13.90;99.90;;;;;;2092317;28;20518;-72
2023/10/03 04:21:32;;;;;;;21.40;11.82;;;13.90;99.90;;;;;;2093298;28;20511;-72
2023/10/03 04:22:32;;;;;;;22.02;12.82;;;13.90;99.90;;;;;;2097382;28;20086;-72
2023/10/03 04:23:33;;;;;;;25.65;12.98;;;13.90;99.90;;;;;;2093256;28;20082;-72
2023/10/03 04:24:34;;;;;;;24.45;13.05;;;13.80;99.90;;;;;;2092952;28;20261;-72
2023/10/03 04:25:37;;;;;;;26.63;13.48;;;13.80;99.90;;;;;;2093223;28;20048;-72
2023/10/03 04:26:41;;;;;;;23.80;12.15;;;13.80;99.90;;;;;;2093892;28;20032;-72
2023/10/03 04:27:42;;;;;;;24.88;13.13;;;13.80;99.90;;;;;;2094624;28;20032;-72
2023/10/03 04:28:43;;;;;;;23.02;12.82;;;13.80;99.90;;;;;;2091694;28;20020;-72
2023/10/03 04:29:44;;;;;;;25.08;12.88;;;13.70;99.90;;;;;;2085446;28;20120;-72
2023/10/03 04:30:45;;;;;;;23.95;13.50;;;13.70;99.90;;;;;;2084824;28;20036;-72
2023/10/03 04:31:46;;;;;;;26.92;12.93;;;13.70;99.90;;;;;;2091022;28;20052;-72
2023/10/03 04:32:47;;;;;;;22.98;13.23;;;13.70;99.90;;;;;;2093308;28;20506;-73
2023/10/03 04:33:48;;;;;;;24.05;12.98;;;13.70;99.90;;;;;;2092067;28;20035;-72
2023/10/03 04:34:48;;;;;;;26.35;13.57;;;13.70;99.90;;;;;;2090959;28;20042;-72
2023/10/03 04:35:50;;;;;;;24.40;13.30;;;13.70;99.90;;;;;;2095146;28;20032;-72
2023/10/03 04:36:50;;;;;;;26.48;13.48;;;13.70;99.90;;;;;;2095229;28;20040;-72
2023/10/03 04:37:52;;;;;;;22.42;12.80;;;13.70;99.90;;;;;;2095725;28;20028;-72
2023/10/03 04:38:53;;;;;;;23.35;13.20;;;13.60;99.90;;;;;;2096743;28;20021;-73
2023/10/03 04:39:54;;;;;;;25.77;13.57;;;13.60;99.90;;;;;;2097362;28;20040;-72
2023/10/03 04:40:55;;;;;;;24.02;13.38;;;13.70;99.90;;;;;;2084938;28;20097;-72
2023/10/03 04:41:57;;;;;;;23.95;12.80;;;13.70;99.90;;;;;;2086477;28;20141;-72
2023/10/03 04:42:58;;;;;;;23.23;12.68;;;13.70;99.90;;;;;;2096655;28;20039;-71
2023/10/03 04:44:01;;;;;;;23.77;12.43;;;13.70;99.90;;;;;;2092428;28;20031;-72
2023/10/03 04:45:05;;;;;;;24.45;13.10;;;13.70;99.90;;;;;;2086187;28;20028;-72
2023/10/03 04:46:07;;;;;;;26.10;13.60;;;13.70;99.90;;;;;;2086387;28;20506;-72
2023/10/03 04:47:11;;;;;;;24.52;12.73;;;13.70;99.90;;;;;;2084029;28;20500;-72
2023/10/03 04:48:12;;;;;;;23.73;12.73;;;13.70;99.90;;;;;;2096255;28;20021;-72
2023/10/03 04:49:13;;;;;;;21.83;12.15;;;13.70;99.90;;;;;;2091973;28;20052;-73
2023/10/03 04:50:18;;;;;;;22.88;12.57;;;13.70;99.90;;;;;;2092359;28;20388;-72
2023/10/03 04:51:19;;;;;;;26.08;13.70;;;13.70;99.90;;;;;;2095974;28;20125;-71
2023/10/03 04:52:19;;;;;;;25.50;12.50;;;13.70;99.90;;;;;;2092308;28;20174;-71
2023/10/03 04:53:20;;;;;;;24.08;12.73;;;13.70;99.90;;;;;;2092016;28;20059;-71
2023/10/03 04:54:21;;;;;;;21.15;12.57;;;13.80;99.90;;;;;;2086965;28;20190;-71
2023/10/03 04:55:23;;;;;;;22.88;12.57;;;13.80;99.90;;;;;;2097047;28;20040;-72
2023/10/03 04:56:24;;;;;;;22.25;12.48;;;13.80;99.90;;;;;;2092711;28;20039;-72
2023/10/03 04:57:27;;;;;;;23.58;12.27;;;13.80;99.90;;;;;;2091970;28;20059;-72
2023/10/03 04:58:27;;;;;;;26.80;12.75;;;13.80;99.90;;;;;;2092054;28;20028;-70
2023/10/03 04:59:28;;;;;;;24.33;12.77;;;13.80;99.90;;;;;;2088059;28;20033;-72
2023/10/03 05:00:30;;;;;;;21.45;11.80;;;13.80;99.90;;;;;;2087133;28;20135;-71
2023/10/03 05:01:32;;;;;;;21.65;11.77;;;13.80;99.90;;;;;;2089292;28;20069;-70
2023/10/03 05:02:32;;;;;;;20.55;12.00;;;13.80;99.90;;;;;;2093977;28;20036;-70
2023/10/03 05:03:33;;;;;;;25.80;13.07;;;13.80;99.90;;;;;;2089638;28;20222;-70
2023/10/03 05:04:34;;;;;;;23.85;12.77;;;13.80;99.90;;;;;;2085607;28;20036;-70
2023/10/03 05:05:35;;;;;;;22.02;12.23;;;13.80;99.90;;;;;;2094020;28;20044;-71
2023/10/03 05:06:36;;;;;;;23.52;12.70;;;13.80;99.90;;;;;;2092902;28;20033;-71
2023/10/03 05:07:36;;;;;;;26.00;13.15;;;13.80;99.90;;;;;;2095337;28;20052;-71
2023/10/03 05:08:37;;;;;;;25.15;12.65;;;13.80;99.90;;;;;;2082568;28;20033;-70
2023/10/03 05:09:38;;;;;;;23.90;12.55;;;13.80;99.90;;;;;;2085805;28;20395;-70
2023/10/03 05:10:39;;;;;;;23.80;12.32;;;13.80;99.90;;;;;;2083738;28;20033;-70
2023/10/03 05:11:41;;;;;;;23.35;12.15;;;13.80;99.90;;;;;;2078011;28;20037;-70
2023/10/03 05:12:45;;;;;;;23.73;12.77;;;13.90;99.90;;;;;;2085195;28;20028;-70
2023/10/03 05:13:45;;;;;;;23.40;12.65;;;13.90;99.90;;;;;;2095863;28;20024;-71
2023/10/03 05:14:48;;;;;;;26.10;12.45;;;13.90;99.90;;;;;;2096234;28;20063;-70
2023/10/03 05:15:48;;;;;;;25.45;12.90;;;13.90;99.90;;;;;;2083341;28;20637;-70